Time;durP1;ratioP1;P1;durP2;ratioP2;P2;SDS_P1;SDS_P2;PMS_P1;PMS_P2;Temp;Humidity;BMP_temperature;BMP_pressure;BME280_temperature;BME280_humidity;BME280_pressure;Samples;Min_cycle;Max_cycle;Signal;HPM_P1;HPM_P2
2021/12/24 00:01:14;;;;;;;19.60;9.60;;;;;;;-11.82;60.65;100076.16;24440;1354;3026171;-62
2021/12/24 00:03:48;;;;;;;19.60;9.60;;;;;;;-11.99;61.58;100073.65;23116;1358;13406309;-60
2021/12/24 00:06:17;;;;;;;27.50;12.30;;;;;;;-11.77;60.91;100078.05;24410;1361;3025907;-57
2021/12/24 00:09:05;;;;;;;22.00;8.80;;;;;;;-10.86;58.57;100077.16;24421;1357;3067558;-60
2021/12/24 00:11:36;;;;;;;19.20;8.40;;;;;;;-10.66;57.41;100077.17;24418;1354;3026557;-62
2021/12/24 00:14:07;;;;;;;21.10;9.20;;;;;;;-10.92;58.57;100073.23;24466;1358;3025458;-57
2021/12/24 00:16:45;;;;;;;17.50;8.50;;;;;;;-11.01;58.77;100067.49;24457;1355;3026891;-60
2021/12/24 00:35:40;;;;;;;15.70;7.90;;;;;;;-10.99;59.82;100049.44;24398;1357;3050442;-61
2021/12/24 00:38:11;;;;;;;16.40;7.90;;;;;;;-11.17;60.70;100046.95;24416;1358;3025919;-59
2021/12/24 00:40:43;;;;;;;7.50;3.40;;;;;;;-11.22;60.47;100041.35;24400;1356;3025254;-57
2021/12/24 00:43:14;;;;;;;14.20;6.80;;;;;;;-10.64;59.31;100035.94;24454;1358;3025857;-56
2021/12/24 00:45:44;;;;;;;14.40;5.90;;;;;;;-10.08;60.99;100035.52;24461;1359;3025309;-60
2021/12/24 00:48:15;;;;;;;19.60;7.80;;;;;;;-10.04;58.76;100023.60;24440;1359;3026857;-60
2021/12/24 00:56:10;;;;;;;22.30;10.20;;;;;;;-10.71;59.08;100022.48;24419;1355;3051464;-60
2021/12/24 00:58:40;;;;;;;16.60;6.70;;;;;;;-11.06;61.00;100022.13;24486;1348;3051263;-59
2021/12/24 01:01:10;;;;;;;8.30;4.30;;;;;;;-11.11;61.55;100019.26;24450;1355;3026953;-60
2021/12/24 01:03:39;;;;;;;21.00;7.10;;;;;;;-10.29;60.36;100014.01;24472;1354;3027411;-58
2021/12/24 01:06:08;;;;;;;15.30;7.70;;;;;;;-10.02;59.28;100010.80;24447;1355;3027256;-60
2021/12/24 01:08:38;;;;;;;22.30;8.40;;;;;;;-9.86;59.32;100009.56;24404;1354;3025363;-58
2021/12/24 01:11:07;;;;;;;20.60;9.40;;;;;;;-10.15;59.60;100003.77;24452;1354;3047687;-58
2021/12/24 01:13:37;;;;;;;21.90;9.30;;;;;;;-10.39;60.43;100008.46;24537;1361;3026888;-56
2021/12/24 01:16:24;;;;;;;18.00;9.40;;;;;;;-10.57;61.49;100008.21;24453;1356;3025192;-58
2021/12/24 01:19:09;;;;;;;14.40;5.10;;;;;;;-10.71;62.31;99997.92;24430;1361;3050680;-59
2021/12/24 01:24:19;;;;;;;17.50;7.80;;;;;;;-9.63;59.62;99988.36;24462;1349;3049723;-55
2021/12/24 01:27:19;;;;;;;17.30;7.00;;;;;;;-9.30;58.88;99986.44;24470;1355;3067529;-56
2021/12/24 01:38:18;;;;;;;21.00;8.90;;;;;;;-9.86;60.21;99967.70;24401;1355;3054886;-62
2021/12/24 01:43:25;;;;;;;16.40;6.40;;;;;;;-9.61;59.80;99957.75;24393;1358;3051839;-61
2021/12/24 01:45:55;;;;;;;15.10;7.10;;;;;;;-8.82;58.38;99951.39;24434;1362;3025586;-61
2021/12/24 01:48:24;;;;;;;22.40;9.20;;;;;;;-8.60;57.95;99944.96;24382;1355;3027350;-60
2021/12/24 01:50:54;;;;;;;22.30;10.40;;;;;;;-8.78;58.13;99944.52;24444;1354;3026919;-57
2021/12/24 01:53:29;;;;;;;33.00;13.10;;;;;;;-8.98;58.69;99943.65;24475;1355;3050435;-61
2021/12/24 01:55:58;;;;;;;28.60;13.10;;;;;;;-9.51;60.70;99946.83;24479;1358;3027161;-61
2021/12/24 01:58:27;;;;;;;33.80;14.00;;;;;;;-9.71;61.33;99942.54;24483;1358;3025526;-59
2021/12/24 02:00:57;;;;;;;38.70;13.70;;;;;;;-9.94;61.69;99937.63;24422;1351;3050278;-56
2021/12/24 02:03:26;;;;;;;27.60;8.60;;;;;;;-10.16;63.18;99936.48;24440;1361;3025430;-56
2021/12/24 02:05:55;;;;;;;31.50;11.50;;;;;;;-9.73;62.45;99929.08;24424;1355;3046778;-59
2021/12/24 02:08:24;;;;;;;40.90;13.10;;;;;;;-9.02;60.88;99919.44;24436;1358;3026699;-56
2021/12/24 02:10:53;;;;;;;40.70;15.40;;;;;;;-8.51;59.43;99906.58;24443;1355;3068827;-57
2021/12/24 02:13:23;;;;;;;48.40;17.80;;;;;;;-8.67;59.27;99905.89;24440;1357;3025406;-54
2021/12/24 02:29:33;;;;;;;24.00;9.70;;;;;;;-10.00;64.58;99900.84;24441;1355;3050323;-58
2021/12/24 02:32:03;;;;;;;24.10;9.10;;;;;;;-9.20;62.44;99888.77;24416;1358;3025188;-59
2021/12/24 02:34:32;;;;;;;25.90;11.60;;;;;;;-8.89;61.45;99879.20;24445;1362;3027362;-55
2021/12/24 02:37:00;;;;;;;25.30;11.00;;;;;;;-8.95;61.77;99877.20;24480;1358;3027419;-58
2021/12/24 02:39:31;;;;;;;28.40;11.70;;;;;;;-8.96;61.75;99871.73;24444;1357;3070431;-57
2021/12/24 02:42:14;;;;;;;31.20;13.50;;;;;;;-8.99;61.69;99875.20;24437;1355;3026253;-57
2021/12/24 02:44:44;;;;;;;27.20;12.40;;;;;;;-9.23;62.01;99879.20;24430;1358;3054319;-63
2021/12/24 02:47:37;;;;;;;38.30;12.10;;;;;;;-9.38;62.99;99877.27;24417;1354;3025242;-59
2021/12/24 02:55:20;;;;;;;27.00;9.60;;;;;;;-9.10;63.50;99849.99;24464;1361;3054647;-57
2021/12/24 02:57:50;;;;;;;28.90;9.50;;;;;;;-8.41;61.50;99845.30;24467;1358;3025845;-60
2021/12/24 03:00:26;;;;;;;27.20;8.80;;;;;;;-8.11;60.37;99838.79;24447;1354;3048165;-57
2021/12/24 03:02:55;;;;;;;40.40;12.60;;;;;;;-8.38;60.45;99832.44;24396;1356;3051478;-57
2021/12/24 03:05:25;;;;;;;30.50;11.50;;;;;;;-8.68;61.38;99827.73;24453;1358;3026575;-58
2021/12/24 03:07:55;;;;;;;28.10;11.90;;;;;;;-8.76;61.60;99828.23;24443;1355;3026165;-56
2021/12/24 03:10:24;;;;;;;24.50;9.90;;;;;;;-8.83;61.85;99820.75;24411;1354;3025263;-57
2021/12/24 03:12:53;;;;;;;29.20;13.00;;;;;;;-9.01;62.52;99815.25;24428;1362;3052881;-62
2021/12/24 03:15:24;;;;;;;30.50;12.10;;;;;;;-9.24;63.89;99812.83;24419;1358;3025102;-59
2021/12/24 03:17:57;;;;;;;28.10;11.80;;;;;;;-9.26;63.48;99811.08;24427;1358;3055080;-58
2021/12/24 03:20:32;;;;;;;19.20;8.00;;;;;;;-9.53;65.14;99809.55;24438;1354;3026660;-60
2021/12/24 03:23:10;;;;;;;16.90;6.70;;;;;;;-9.19;64.09;99807.52;24379;1361;3069666;-59
2021/12/24 03:25:41;;;;;;;25.70;8.40;;;;;;;-8.49;61.95;99799.27;24467;1354;3047331;-59
2021/12/24 03:28:09;;;;;;;22.70;9.40;;;;;;;-8.25;61.02;99794.98;24453;1358;3027556;-58
2021/12/24 03:30:39;;;;;;;25.60;8.90;;;;;;;-8.48;61.27;99793.16;24364;1354;3069292;-59
2021/12/24 03:33:09;;;;;;;18.60;8.40;;;;;;;-8.46;60.94;99789.27;24382;1361;3025166;-55
2021/12/24 03:35:39;;;;;;;23.30;9.30;;;;;;;-8.89;61.56;99785.48;24439;1358;3026961;-57
2021/12/24 03:38:09;;;;;;;27.80;9.10;;;;;;;-9.11;62.86;99778.67;24485;1358;3027908;-57
2021/12/24 03:40:38;;;;;;;26.50;10.50;;;;;;;-9.22;62.53;99779.79;24423;1361;3026012;-57
2021/12/24 03:43:08;;;;;;;23.70;12.10;;;;;;;-9.34;63.42;99778.47;24421;1359;3052491;-58
2021/12/24 03:45:45;;;;;;;33.10;11.60;;;;;;;-9.51;64.02;99779.08;24420;1362;3026386;-58
2021/12/24 03:48:19;;;;;;;12.40;5.90;;;;;;;-9.72;64.98;99779.58;24426;1362;3047971;-57
2021/12/24 03:56:39;;;;;;;29.00;9.40;;;;;;;-8.61;61.93;99763.67;24414;1351;3055060;-61
2021/12/24 03:59:13;;;;;;;30.60;10.30;;;;;;;-8.77;62.06;99760.95;24408;1362;3048824;-55
2021/12/24 04:02:00;;;;;;;20.40;7.80;;;;;;;-9.10;62.81;99756.66;24446;1363;3054214;-62
2021/12/24 04:04:39;;;;;;;24.70;10.60;;;;;;;-9.34;63.00;99755.75;24416;1358;3054368;-57
2021/12/24 04:07:17;;;;;;;19.70;8.80;;;;;;;-9.61;63.84;99756.11;24419;1355;3069613;-59
2021/12/24 04:10:04;;;;;;;23.00;9.20;;;;;;;-9.77;64.27;99751.45;24384;1355;3048350;-57
2021/12/24 04:13:03;;;;;;;19.10;7.10;;;;;;;-9.98;64.73;99747.86;24377;1364;3054268;-63
2021/12/24 04:15:32;;;;;;;16.60;6.60;;;;;;;-9.70;64.88;99746.54;24441;1361;3027149;-60
2021/12/24 04:18:16;;;;;;;19.80;7.60;;;;;;;-8.96;62.49;99739.48;24417;1362;3025387;-58
2021/12/24 04:26:21;;;;;;;27.00;10.20;;;;;;;-9.38;62.88;99735.29;24417;1361;3057809;-57
2021/12/24 04:28:50;;;;;;;37.50;12.10;;;;;;;-9.81;63.92;99735.08;24435;1361;3024885;-56
2021/12/24 04:31:25;;;;;;;32.00;12.70;;;;;;;-10.04;65.15;99735.49;24420;1361;3050140;-61
2021/12/24 04:33:59;;;;;;;25.30;12.50;;;;;;;-10.29;66.22;99738.40;24432;1361;3054647;-60
2021/12/24 05:03:47;;;;;;;15.00;6.10;;;;;;;-9.21;63.50;99702.77;24443;1358;3058290;-58
2021/12/24 05:08:57;;;;;;;14.80;7.60;;;;;;;-9.67;63.90;99700.34;24498;1355;3053433;-59
2021/12/24 05:11:27;;;;;;;16.10;7.40;;;;;;;-9.93;64.13;99704.09;24440;1354;3027261;-61
2021/12/24 05:13:55;;;;;;;15.20;6.60;;;;;;;-10.17;64.58;99704.14;24456;1362;3026949;-60
2021/12/24 05:17:04;;;;;;;18.60;8.00;;;;;;;-10.55;66.09;99703.12;24473;1359;3055699;-60
2021/12/24 05:22:49;;;;;;;;;;;;;;;-10.07;64.97;99707.46;24422;1364;3069527;-61
2021/12/24 05:25:21;;;;;;;13.10;6.10;;;;;;;-9.63;63.96;99701.42;24424;1359;3025485;-56
2021/12/24 05:27:55;;;;;;;11.40;4.90;;;;;;;-9.42;62.72;99693.63;24388;1362;3025422;-58
2021/12/24 05:30:24;;;;;;;15.20;6.70;;;;;;;-9.56;62.58;99690.25;24466;1362;3052554;-58
2021/12/24 05:32:54;;;;;;;19.20;7.40;;;;;;;-9.84;62.89;99690.42;24463;1361;3026677;-61
2021/12/24 05:35:23;;;;;;;19.10;6.90;;;;;;;-10.05;63.25;99694.79;24476;1355;3025624;-62
2021/12/24 05:37:52;;;;;;;23.50;8.80;;;;;;;-10.45;63.66;99693.42;24433;1361;3053457;-62
2021/12/24 05:40:21;;;;;;;14.80;5.30;;;;;;;-10.89;64.81;99701.16;24410;1359;3025312;-60
2021/12/24 05:42:51;;;;;;;16.20;5.70;;;;;;;-10.46;64.79;99693.54;24473;1361;3052737;-58
2021/12/24 05:45:23;;;;;;;17.00;7.10;;;;;;;-9.74;62.22;99687.29;24455;1361;3025958;-58
2021/12/24 05:48:12;;;;;;;13.80;6.70;;;;;;;-9.81;61.69;99676.25;24420;1361;3058047;-59
2021/12/24 05:50:41;;;;;;;15.70;7.60;;;;;;;-10.03;61.56;99674.34;24449;1356;3025490;-60
2021/12/24 05:53:29;;;;;;;15.10;6.50;;;;;;;-10.30;62.46;99669.08;24412;1363;3053825;-58
2021/12/24 05:56:18;;;;;;;14.90;6.60;;;;;;;-10.22;61.95;99673.52;24462;1361;3051501;-58
2021/12/24 05:58:51;;;;;;;15.60;7.00;;;;;;;-10.57;62.94;99670.93;24410;1358;3027168;-59
2021/12/24 06:01:21;;;;;;;5.90;2.90;;;;;;;-10.55;63.11;99677.25;24458;1358;3025527;-58
2021/12/24 06:03:50;;;;;;;14.20;6.00;;;;;;;-10.09;62.09;99667.58;24479;1361;3052532;-59
2021/12/24 06:06:20;;;;;;;17.40;7.80;;;;;;;-9.57;60.98;99657.13;24470;1359;3025387;-60
2021/12/24 06:08:49;;;;;;;11.00;6.30;;;;;;;-9.73;60.64;99655.42;24406;1361;3025940;-60
2021/12/24 06:11:18;;;;;;;15.30;6.30;;;;;;;-9.57;59.99;99653.40;24379;1361;3051706;-59
2021/12/24 06:13:52;;;;;;;16.10;6.40;;;;;;;-9.95;61.13;99652.17;24419;1359;3025426;-61
2021/12/24 06:16:21;;;;;;;9.70;5.20;;;;;;;-10.01;61.82;99653.55;24415;1356;3025220;-58
2021/12/24 06:18:51;;;;;;;13.80;7.60;;;;;;;-10.23;62.12;99644.88;24405;1356;3025397;-60
2021/12/24 06:21:20;;;;;;;8.30;4.20;;;;;;;-10.41;62.86;99642.05;24453;1355;3027220;-60
2021/12/24 06:23:49;;;;;;;10.70;4.90;;;;;;;-10.27;62.78;99644.60;24508;1359;3025440;-63
2021/12/24 06:26:18;;;;;;;10.90;5.00;;;;;;;-9.61;61.21;99651.95;24418;1359;3050973;-58
2021/12/24 06:28:47;;;;;;;13.10;5.40;;;;;;;-9.17;59.15;99643.12;24409;1355;3027935;-61
2021/12/24 06:31:16;;;;;;;18.20;7.80;;;;;;;-9.07;58.50;99631.63;24373;1361;3048458;-63
2021/12/24 06:33:45;;;;;;;14.60;6.70;;;;;;;-9.17;58.96;99617.83;24468;1362;3026617;-60
2021/12/24 06:36:14;;;;;;;13.30;6.10;;;;;;;-9.27;59.26;99620.84;24464;1361;3066545;-63
2021/12/24 06:38:42;;;;;;;11.80;5.70;;;;;;;-9.56;59.25;99623.77;24441;1356;3028449;-63
2021/12/24 06:41:11;;;;;;;10.20;5.70;;;;;;;-9.81;60.83;99622.18;24456;1361;3052230;-61
2021/12/24 06:43:40;;;;;;;16.30;7.30;;;;;;;-10.03;61.23;99627.91;24444;1362;3026768;-61
2021/12/24 06:46:12;;;;;;;7.30;3.40;;;;;;;-10.25;62.30;99615.34;24436;1358;3053467;-61
2021/12/24 06:48:42;;;;;;;12.70;5.10;;;;;;;-10.02;62.91;99592.00;24403;1355;3026089;-61
2021/12/24 06:51:11;;;;;;;9.00;4.40;;;;;;;-9.23;60.73;99590.04;24402;1355;3025460;-60
2021/12/24 06:53:40;;;;;;;14.40;6.20;;;;;;;-8.93;59.37;99581.14;24406;1358;3053254;-57
2021/12/24 06:56:10;;;;;;;10.50;5.20;;;;;;;-9.33;60.29;99583.05;24392;1355;3026330;-58
2021/12/24 06:58:43;;;;;;;16.30;7.40;;;;;;;-9.55;60.53;99577.48;24469;1361;3025740;-59
2021/12/24 07:01:12;;;;;;;23.00;8.50;;;;;;;-9.52;60.78;99572.80;24432;1358;3025656;-58
2021/12/24 07:03:42;;;;;;;17.90;6.10;;;;;;;-9.84;61.35;99556.66;24423;1358;3024828;-59
2021/12/24 07:06:10;;;;;;;21.60;9.10;;;;;;;-9.97;62.00;99547.39;24428;1355;3066778;-61
2021/12/24 07:08:40;;;;;;;13.60;6.10;;;;;;;-10.03;62.26;99540.79;24456;1354;3026544;-61
2021/12/24 07:11:09;;;;;;;12.40;5.00;;;;;;;-9.79;62.49;99537.79;24462;1354;3049724;-61
2021/12/24 07:13:44;;;;;;;11.40;5.60;;;;;;;-9.17;61.09;99543.98;24468;1355;3068795;-61
2021/12/24 07:16:13;;;;;;;13.80;6.40;;;;;;;-8.67;59.08;99539.67;24495;1358;3025442;-58
2021/12/24 07:18:42;;;;;;;17.20;7.10;;;;;;;-8.96;59.81;99527.27;24516;1355;3051996;-62
2021/12/24 07:21:11;;;;;;;19.80;9.90;;;;;;;-9.08;60.29;99521.27;24482;1361;3026702;-63
2021/12/24 07:23:41;;;;;;;17.90;6.30;;;;;;;-9.38;60.73;99531.55;24498;1359;3053634;-60
2021/12/24 07:26:09;;;;;;;21.40;9.40;;;;;;;-9.23;61.03;99533.55;24420;1360;3026439;-59
2021/12/24 07:28:38;;;;;;;17.70;8.20;;;;;;;-9.46;61.55;99534.59;24487;1358;3047563;-60
2021/12/24 07:31:07;;;;;;;16.80;7.30;;;;;;;-9.58;62.29;99532.15;24389;1359;3025215;-57
2021/12/24 07:33:36;;;;;;;12.80;7.10;;;;;;;-9.37;61.45;99518.33;24401;1361;3056752;-61
2021/12/24 07:36:06;;;;;;;15.20;6.50;;;;;;;-9.80;63.55;99507.77;24392;1361;3026053;-58
2021/12/24 07:38:35;;;;;;;13.70;5.00;;;;;;;-9.28;63.45;99510.52;24455;1359;3024824;-57
2021/12/24 07:41:05;;;;;;;17.50;7.50;;;;;;;-8.40;61.19;99498.35;24458;1359;3026416;-59
2021/12/24 07:43:35;;;;;;;16.00;5.80;;;;;;;-8.07;59.67;99497.14;24460;1357;3026088;-61
2021/12/24 07:46:07;;;;;;;12.80;6.80;;;;;;;-8.24;59.50;99501.98;24483;1355;3025690;-59
2021/12/24 07:48:44;;;;;;;18.30;7.80;;;;;;;-8.43;60.25;99491.67;24430;1358;3026179;-59
2021/12/24 07:54:02;;;;;;;21.00;9.30;;;;;;;-8.61;61.24;99492.58;24401;1361;3057394;-61
2021/12/24 07:56:31;;;;;;;18.20;7.30;;;;;;;-8.83;62.25;99485.59;24453;1358;3025047;-57
2021/12/24 07:59:02;;;;;;;24.90;8.80;;;;;;;-8.79;62.84;99487.35;24374;1357;3027017;-60
2021/12/24 08:01:31;;;;;;;10.70;4.90;;;;;;;-9.09;63.45;99483.24;24441;1361;3024825;-62
2021/12/24 08:04:01;;;;;;;10.70;4.90;;;;;;;-9.06;63.90;99483.14;23042;1361;8592275;-61
2021/12/24 08:06:30;;;;;;;24.60;12.20;;;;;;;-8.88;63.72;99480.91;24392;1357;3053755;-57
2021/12/24 08:08:59;;;;;;;16.30;6.70;;;;;;;-8.81;63.28;99474.59;24852;1357;3025925;-58
2021/12/24 08:11:34;;;;;;;11.30;6.30;;;;;;;-8.45;63.29;99463.77;25272;1358;3052102;-63
2021/12/24 08:14:05;;;;;;;11.90;5.90;;;;;;;-7.54;60.92;99449.55;24781;1357;3026392;-58
2021/12/24 08:16:35;;;;;;;14.60;7.20;;;;;;;-7.26;59.43;99442.91;24941;1361;3026189;-60
2021/12/24 08:19:13;;;;;;;13.10;6.10;;;;;;;-7.74;60.04;99451.36;24515;1363;3050007;-56
2021/12/24 08:21:43;;;;;;;9.90;4.70;;;;;;;-7.77;60.45;99444.52;24432;1361;3027087;-59
2021/12/24 08:24:12;;;;;;;13.00;5.80;;;;;;;-7.70;60.08;99427.75;24456;1352;3026669;-58
2021/12/24 08:26:42;;;;;;;13.30;6.90;;;;;;;-8.08;61.49;99420.98;24458;1355;3027007;-59
2021/12/24 08:29:10;;;;;;;11.90;6.40;;;;;;;-8.30;62.07;99408.60;24443;1358;3026460;-60
2021/12/24 08:31:40;;;;;;;9.50;5.40;;;;;;;-8.38;62.41;99405.43;24430;1362;3049377;-62
2021/12/24 08:34:08;;;;;;;17.20;6.80;;;;;;;-8.47;63.22;99396.14;24453;1358;3027947;-59
2021/12/24 08:36:37;;;;;;;14.50;6.50;;;;;;;-8.53;63.58;99390.79;24448;1356;3052728;-60
2021/12/24 08:39:08;;;;;;;10.30;5.90;;;;;;;-8.57;64.46;99390.90;24452;1357;3024997;-58
2021/12/24 08:41:38;;;;;;;13.10;6.70;;;;;;;-8.47;64.76;99377.11;24445;1357;3025670;-60
2021/12/24 08:44:06;;;;;;;17.50;7.80;;;;;;;-8.43;65.31;99372.56;24427;1359;3053491;-60
2021/12/24 08:46:36;;;;;;;13.10;5.00;;;;;;;-8.46;65.62;99360.31;24504;1361;3026644;-59
2021/12/24 08:49:05;;;;;;;12.40;6.50;;;;;;;-8.54;66.96;99361.23;24423;1358;3050505;-57
2021/12/24 08:51:34;;;;;;;7.90;4.80;;;;;;;-8.51;67.63;99357.53;24422;1358;3025540;-59
2021/12/24 08:54:03;;;;;;;11.60;5.50;;;;;;;-8.60;68.46;99351.29;24439;1358;3053858;-58
2021/12/24 08:56:32;;;;;;;7.00;4.20;;;;;;;-8.59;69.15;99340.44;24394;1363;3024985;-59
2021/12/24 08:59:01;;;;;;;13.30;6.60;;;;;;;-8.40;69.47;99329.45;24425;1364;3053825;-60
2021/12/24 09:01:31;;;;;;;14.20;7.00;;;;;;;-8.57;70.12;99322.95;24406;1357;3025079;-57
2021/12/24 09:04:00;;;;;;;12.80;6.70;;;;;;;-8.48;71.13;99317.48;24448;1361;3050122;-60
2021/12/24 09:06:29;;;;;;;16.20;6.60;;;;;;;-8.31;70.89;99303.58;24421;1362;3025507;-59
2021/12/24 09:08:58;;;;;;;15.90;7.00;;;;;;;-8.36;70.93;99303.00;24377;1361;3026683;-58
2021/12/24 09:11:27;;;;;;;14.10;7.50;;;;;;;-8.33;71.61;99299.13;24363;1363;3052826;-58
2021/12/24 09:13:56;;;;;;;14.60;5.80;;;;;;;-8.24;71.57;99287.17;24424;1360;3027474;-58
2021/12/24 09:16:46;;;;;;;14.30;7.60;;;;;;;-8.25;72.57;99282.23;24408;1357;3048343;-63
2021/12/24 09:19:19;;;;;;;7.70;5.00;;;;;;;-8.18;72.54;99276.36;24443;1357;3027135;-60
2021/12/24 09:21:49;;;;;;;19.00;8.30;;;;;;;-7.63;71.63;99257.22;24437;1361;3052481;-61
2021/12/24 09:24:20;;;;;;;18.80;8.20;;;;;;;-7.04;70.04;99258.23;24433;1360;3027987;-60
2021/12/24 09:26:54;;;;;;;17.80;8.90;;;;;;;-6.92;69.59;99253.88;24424;1361;3050895;-58
2021/12/24 09:29:23;;;;;;;14.10;7.90;;;;;;;-6.76;68.97;99236.44;24370;1359;3053143;-60
2021/12/24 09:31:53;;;;;;;12.90;7.40;;;;;;;-6.94;68.84;99225.41;24446;1358;3025985;-60
2021/12/24 09:34:22;;;;;;;12.80;5.80;;;;;;;-7.21;70.02;99211.98;24421;1356;3026376;-60
2021/12/24 09:36:52;;;;;;;8.50;5.70;;;;;;;-7.22;70.76;99208.55;24439;1358;3027458;-57
2021/12/24 09:40:08;;;;;;;11.90;5.80;;;;;;;-7.31;70.88;99193.17;22017;1355;3054668;-62
2021/12/24 09:46:50;;;;;;;15.20;6.20;;;;;;;-7.22;72.06;99170.44;12101;1362;3090965;-63
2021/12/24 09:49:23;;;;;;;12.80;5.50;;;;;;;-7.26;72.42;99168.02;22093;1357;3126045;-60
2021/12/24 09:51:53;;;;;;;12.10;7.10;;;;;;;-7.33;73.45;99155.38;24420;1355;3025301;-63
2021/12/24 09:54:23;;;;;;;12.30;6.40;;;;;;;-7.45;74.30;99145.42;24471;1354;3026323;-61
2021/12/24 09:56:53;;;;;;;7.60;4.40;;;;;;;-7.41;75.52;99140.52;24514;1354;3025641;-59
2021/12/24 09:59:22;;;;;;;13.70;6.70;;;;;;;-6.95;75.58;99141.79;24439;1354;3025162;-63
2021/12/24 10:01:57;;;;;;;9.80;5.50;;;;;;;-6.00;73.79;99125.35;24391;1355;3026370;-63
2021/12/24 10:04:29;;;;;;;11.70;5.50;;;;;;;-5.76;71.82;99114.59;24444;1359;3050869;-69
2021/12/24 10:07:07;;;;;;;10.70;5.80;;;;;;;-5.78;71.99;99116.81;24483;1358;3026267;-58
2021/12/24 10:09:38;;;;;;;11.00;5.80;;;;;;;-6.03;72.36;99112.23;24435;1354;3050628;-65
2021/12/24 10:12:15;;;;;;;11.90;6.50;;;;;;;-6.19;73.42;99103.17;24473;1355;3025446;-59
2021/12/24 10:14:51;;;;;;;9.20;4.90;;;;;;;-6.22;74.40;99098.92;24470;1354;3047572;-61
2021/12/24 10:24:45;;;;;;;;;;;;;;;-6.06;75.17;99069.76;4539;1361;3158020;-62
2021/12/24 10:27:21;;;;;;;;;;;;;;;-5.42;74.41;99055.13;4402;1362;3222036;-60
2021/12/24 10:30:32;;;;;;;13.70;7.60;;;;;;;-4.44;71.32;99043.94;11818;1363;3164466;-62
2021/12/24 10:33:38;;;;;;;13.70;7.60;;;;;;;-4.30;70.56;99036.34;9286;1351;3194086;-62
2021/12/24 10:36:08;;;;;;;16.50;9.50;;;;;;;-4.36;71.16;99029.20;11484;1354;3213180;-57
2021/12/24 10:38:37;;;;;;;13.60;6.90;;;;;;;-4.41;69.73;99017.59;24810;1355;3070813;-60
2021/12/24 10:41:06;;;;;;;15.90;6.20;;;;;;;-4.80;70.93;99008.44;25225;1352;3026433;-59
2021/12/24 10:43:36;;;;;;;10.90;6.10;;;;;;;-5.02;71.81;98995.08;24538;1348;3049014;-61
2021/12/24 10:46:13;;;;;;;11.00;5.10;;;;;;;-5.14;72.68;98992.05;24498;1354;3027011;-62
2021/12/24 10:49:01;;;;;;;11.50;6.60;;;;;;;-5.39;73.45;98985.48;24514;1352;3048869;-60
2021/12/24 10:51:54;;;;;;;11.50;6.20;;;;;;;-5.45;75.06;98977.15;24478;1354;3055089;-59
2021/12/24 10:54:24;;;;;;;10.80;6.30;;;;;;;-5.32;75.14;98967.04;24511;1354;3053621;-58
2021/12/24 10:56:55;;;;;;;9.50;5.30;;;;;;;-5.39;75.06;98959.04;24500;1354;3026900;-63
2021/12/24 10:59:41;;;;;;;9.80;5.40;;;;;;;-5.30;75.00;98948.06;24470;1354;3053421;-58
2021/12/24 11:02:11;;;;;;;9.70;6.00;;;;;;;-5.24;75.13;98941.55;24496;1358;3053354;-63
2021/12/24 11:04:41;;;;;;;10.80;4.90;;;;;;;-5.22;74.99;98936.08;24485;1354;3025290;-62
2021/12/24 11:07:36;;;;;;;5.60;3.60;;;;;;;-4.62;74.08;98924.57;24487;1354;3027535;-61
2021/12/24 11:10:19;;;;;;;6.80;4.30;;;;;;;-4.04;71.80;98917.58;24504;1358;3052955;-62
2021/12/24 11:12:49;;;;;;;10.10;5.60;;;;;;;-4.00;71.59;98909.48;24526;1352;3051300;-57
2021/12/24 11:15:31;;;;;;;7.60;4.70;;;;;;;-4.10;71.89;98906.48;24496;1354;3026475;-59
2021/12/24 11:18:06;;;;;;;9.30;4.80;;;;;;;-4.14;72.35;98894.58;24505;1354;3047940;-61
2021/12/24 11:20:35;;;;;;;9.70;5.60;;;;;;;-4.24;72.36;98884.59;24525;1354;3052219;-63
2021/12/24 11:23:09;;;;;;;10.80;5.80;;;;;;;-4.48;73.33;98879.68;24505;1355;3026546;-60
2021/12/24 11:25:41;;;;;;;10.90;5.00;;;;;;;-4.45;73.80;98870.42;24536;1357;3059294;-60
2021/12/24 11:28:10;;;;;;;10.60;5.70;;;;;;;-4.61;74.54;98856.37;24493;1354;3026937;-63
2021/12/24 11:30:49;;;;;;;9.00;5.10;;;;;;;-4.68;75.44;98855.08;24534;1354;3026688;-58
2021/12/24 11:33:20;;;;;;;9.40;5.30;;;;;;;-4.76;76.27;98848.46;24488;1356;3052549;-61
2021/12/24 11:35:49;;;;;;;8.70;4.30;;;;;;;-4.57;76.40;98842.32;24498;1358;3026376;-61
2021/12/24 11:38:23;;;;;;;6.20;3.90;;;;;;;-4.15;75.13;98833.34;24481;1354;3026431;-60
2021/12/24 11:40:54;;;;;;;7.10;4.00;;;;;;;-3.51;73.45;98820.39;24540;1352;3052294;-62
2021/12/24 11:43:27;;;;;;;6.10;4.20;;;;;;;-3.51;72.64;98806.19;24506;1360;3028784;-60
2021/12/24 11:45:58;;;;;;;7.40;4.30;;;;;;;-3.60;72.60;98795.01;24469;1356;3028626;-62
2021/12/24 11:48:30;;;;;;;11.20;4.90;;;;;;;-3.74;73.27;98783.73;24493;1357;3027295;-58
2021/12/24 11:51:00;;;;;;;8.90;4.60;;;;;;;-3.98;74.47;98782.16;24439;1354;3026494;-61
2021/12/24 11:53:30;;;;;;;7.40;4.30;;;;;;;-4.15;75.47;98779.46;24535;1354;3026796;-63
2021/12/24 11:56:10;;;;;;;6.00;3.90;;;;;;;-4.26;76.53;98779.09;24490;1354;3027298;-59
2021/12/24 11:58:50;;;;;;;8.00;3.60;;;;;;;-4.34;76.96;98782.08;24502;1353;3049531;-57
2021/12/24 12:01:21;;;;;;;8.40;4.70;;;;;;;-4.38;77.76;98771.02;24474;1354;3053949;-60
2021/12/24 12:03:52;;;;;;;7.80;3.50;;;;;;;-4.49;78.19;98768.90;24501;1354;3027317;-59
2021/12/24 12:06:24;;;;;;;11.20;3.90;;;;;;;-3.89;77.04;98756.57;24504;1357;3026566;-60
2021/12/24 12:08:57;;;;;;;15.10;4.10;;;;;;;-3.41;75.43;98750.39;24501;1360;3026670;-62
2021/12/24 12:11:29;;;;;;;8.00;3.60;;;;;;;-3.40;74.79;98745.06;24500;1354;3025875;-61
2021/12/24 12:14:01;;;;;;;5.50;3.80;;;;;;;-3.57;75.28;98738.48;24523;1354;3026521;-62
2021/12/24 12:16:57;;;;;;;6.40;4.30;;;;;;;-3.78;75.42;98733.81;24499;1354;3070084;-57
2021/12/24 12:22:54;;;;;;;6.20;3.60;;;;;;;-3.89;76.96;98717.71;24499;1355;3054800;-55
2021/12/24 12:25:33;;;;;;;5.00;3.00;;;;;;;-4.05;78.22;98706.98;24533;1356;3052070;-60
2021/12/24 12:28:04;;;;;;;6.20;3.90;;;;;;;-3.94;77.40;98698.64;24485;1360;3059009;-60
2021/12/24 12:30:39;;;;;;;7.50;4.40;;;;;;;-4.03;77.17;98683.52;24505;1354;3026899;-60
2021/12/24 12:33:22;;;;;;;8.00;4.30;;;;;;;-4.11;77.80;98683.13;24500;1354;3056164;-63
2021/12/24 12:35:54;;;;;;;10.00;4.20;;;;;;;-4.05;77.98;98686.63;24488;1357;3054299;-61
2021/12/24 12:38:39;;;;;;;11.30;3.20;;;;;;;-3.46;76.65;98689.84;24493;1357;3026413;-60
2021/12/24 12:41:32;;;;;;;6.00;3.60;;;;;;;-3.03;74.33;98674.89;24458;1354;3048517;-63
2021/12/24 12:44:04;;;;;;;7.20;3.50;;;;;;;-2.86;73.94;98672.52;24474;1354;3051850;-64
2021/12/24 12:46:35;;;;;;;10.00;5.60;;;;;;;-3.01;74.24;98669.55;24456;1358;3026327;-61
2021/12/24 12:49:07;;;;;;;6.20;3.60;;;;;;;-3.10;74.27;98670.07;24498;1354;3026046;-61
2021/12/24 12:51:49;;;;;;;12.90;4.40;;;;;;;-3.21;74.99;98663.73;24477;1358;3027525;-59
2021/12/24 12:54:40;;;;;;;7.90;4.40;;;;;;;-3.21;75.06;98655.35;24499;1352;3052866;-59
2021/12/24 13:10:23;;;;;;;7.10;3.50;;;;;;;-2.25;73.92;98637.17;6448;1351;3173297;-61
2021/12/24 13:13:22;;;;;;;12.30;7.90;;;;;;;-1.98;73.00;98620.09;8207;1354;3106728;-64
2021/12/24 13:25:14;;;;;;;;;;;;;;;;;;;;;
2021/12/24 13:28:39;;;;;;;9.50;5.00;;;;;;;-1.80;74.91;98581.73;8234;1354;3235134;-63
2021/12/24 13:31:25;;;;;;;7.60;3.80;;;;;;;-2.07;73.99;98583.89;9644;1353;3126580;-62
2021/12/24 13:34:39;;;;;;;7.60;3.80;;;;;;;-2.37;75.21;98584.61;4441;1354;3170090;-64
2021/12/24 13:37:13;;;;;;;7.60;3.80;;;;;;;-2.43;75.69;98583.86;4795;1358;3123322;-63
2021/12/24 13:39:52;;;;;;;8.30;4.40;;;;;;;-1.94;74.39;98578.80;6839;1351;3183187;-62
2021/12/24 13:43:19;;;;;;;5.80;3.40;;;;;;;-1.98;74.32;98576.86;11317;1351;3109397;-61
2021/12/24 13:46:27;;;;;;;5.80;3.40;;;;;;;-1.81;74.85;98574.20;8039;1351;3159983;-64
2021/12/24 13:56:23;;;;;;;9.20;4.60;;;;;;;-2.33;77.63;98549.86;3265;1358;3272916;-63
2021/12/24 13:58:58;;;;;;;9.20;4.60;;;;;;;-2.33;77.63;98539.55;4883;1358;3161657;-63
2021/12/24 14:14:15;;;;;;;7.50;3.60;;;;;;;-2.18;76.94;98507.83;9047;1350;3111968;-60
2021/12/24 14:24:47;;;;;;;6.00;3.70;;;;;;;-1.00;74.93;98480.45;9271;1356;3122151;-62
2021/12/24 14:27:48;;;;;;;6.40;3.30;;;;;;;-1.32;74.56;98459.57;10198;1362;3138820;-62
2021/12/24 14:52:05;;;;;;;6.80;3.10;;;;;;;-1.73;78.34;98429.96;6071;1363;3289201;-61